Contact Us:
Email: info@sawbill.com
Phone: (218)663-7150
Fax: (218)663-7980
Mail: 4620 Sawbill Trail
Box 2129
Tofte, MN 55615


Powered by
Movable Type 3.15
 
Sawbill Weather History Archives: February 2003
Current Sawbill Weather History | « January 2003 | March 2003 »


Date

High
Temperature

Low
Temperature

Barometric
Pressure

Relative
Humidity 7AM

9 AM
Temperature

Moisture

Snow

02/28/03 39 2 29.78 63% 11 0  
02/27/03 41 -7 29.99 57% 3 0  
02/26/03 29 -7 29.91 64% 15 0  
02/25/03 20 -20 29.93 49% -7 0  
02/24/03 8 -24 30.19 43% -24 0  
02/23/03 15 -21 30.07 46% -15 0  
02/22/03 19 -16 30.04 33% 8 0  
02/21/03 16 -18 30.02 41% 6 0  
02/20/03 40 1 29.88 65% 9 0  
02/19/03 34 4 29.77 81% 29 0  
02/18/03 29 6 29.83 69% 8 .1" 1"
02/17/03 34 -9 29.53 79% 27 0  
02/16/03 27 4 29.97 67% 9 0  
02/15/03 18 -17 30.43 44% -17 0  
02/14/03 18 -18 30.40 61% 4 0  
02/13/03 11 -9 30.04 50% 0 0  
02/12/03 6 -15 29.90 56% -9 0  
02/11/03 8 -15 29.76 49% -15 0  
02/10/03 7 -18 29.34 57% -3 .05" .5"
02/09/03 14 -32 29.83 46% -18 0  
02/08/03 10 -11 29.62 58% -8 0  
02/07/03 24 -6 29.68 63% 2 .03" 2"
02/06/03 7 -11 29.86 49% -6 0  
02/05/03 19 -11 30.13 58% -6 Trace  
02/04/03 9 -11 29.93 53% -8 0  
02/03/03 31 -9 29.72 60% -9 .15" 3"
02/02/03 31 24 29.72 81% 24 0  
02/01/03 32 20 30.09 84% 28 .17" 3"
 


Home I Trip Planning I Rentals and Outfitting I Reservations I Campgrounds I Sawbill Store I Sawbill News I Contact

© 1997 - 2017, Sawbill Canoe Outfitters, Inc. I Privacy Policy